sensor_id;sensor_type;location;lat;lon;timestamp;pressure;altitude;pressure_sealevel;temperature;humidity
11077;BME280;5591;42.626;23.380;2023-09-30T00:01:40;94639.66;;;19.81;93.41
11077;BME280;5591;42.626;23.380;2023-09-30T00:04:09;94643.69;;;19.84;94.95
11077;BME280;5591;42.626;23.380;2023-09-30T00:06:36;94647.03;;;19.79;95.09
11077;BME280;5591;42.626;23.380;2023-09-30T00:09:04;94632.47;;;19.47;94.79
11077;BME280;5591;42.626;23.380;2023-09-30T00:11:32;94619.94;;;19.13;95.43
11077;BME280;5591;42.626;23.380;2023-09-30T00:14:00;94643.03;;;19.42;94.05
11077;BME280;5591;42.626;23.380;2023-09-30T00:16:27;94642.22;;;19.42;92.81
11077;BME280;5591;42.626;23.380;2023-09-30T00:18:53;94644.06;;;19.53;92.33
11077;BME280;5591;42.626;23.380;2023-09-30T00:21:20;94633.19;;;19.54;90.22
11077;BME280;5591;42.626;23.380;2023-09-30T00:23:47;94630.88;;;19.58;89.27
11077;BME280;5591;42.626;23.380;2023-09-30T00:26:16;94619.63;;;19.67;89.19
11077;BME280;5591;42.626;23.380;2023-09-30T00:28:42;94644.50;;;19.84;89.76
11077;BME280;5591;42.626;23.380;2023-09-30T00:31:09;94633.63;;;19.74;91.85
11077;BME280;5591;42.626;23.380;2023-09-30T00:33:37;94626.13;;;19.71;92.84
11077;BME280;5591;42.626;23.380;2023-09-30T00:36:08;94626.47;;;19.52;93.85
11077;BME280;5591;42.626;23.380;2023-09-30T00:38:35;94621.28;;;19.34;94.72
11077;BME280;5591;42.626;23.380;2023-09-30T00:41:02;94625.97;;;18.97;96.95
11077;BME280;5591;42.626;23.380;2023-09-30T00:43:30;94633.94;;;18.97;96.83
11077;BME280;5591;42.626;23.380;2023-09-30T00:46:02;94633.59;;;18.94;96.11
11077;BME280;5591;42.626;23.380;2023-09-30T00:48:32;94629.75;;;18.78;97.17
11077;BME280;5591;42.626;23.380;2023-09-30T00:51:00;94633.22;;;18.90;96.32
11077;BME280;5591;42.626;23.380;2023-09-30T00:53:27;94634.06;;;19.02;95.74
11077;BME280;5591;42.626;23.380;2023-09-30T00:55:55;94632.09;;;19.09;95.34
11077;BME280;5591;42.626;23.380;2023-09-30T00:58:24;94630.59;;;19.13;95.17
11077;BME280;5591;42.626;23.380;2023-09-30T01:00:56;94634.31;;;19.12;95.69
11077;BME280;5591;42.626;23.380;2023-09-30T01:03:25;94622.94;;;18.94;96.64
11077;BME280;5591;42.626;23.380;2023-09-30T01:05:52;94628.09;;;19.18;96.06
11077;BME280;5591;42.626;23.380;2023-09-30T01:08:19;94624.16;;;19.21;95.23
11077;BME280;5591;42.626;23.380;2023-09-30T01:10:46;94627.84;;;19.20;95.02
11077;BME280;5591;42.626;23.380;2023-09-30T01:13:14;94621.97;;;19.29;94.46
11077;BME280;5591;42.626;23.380;2023-09-30T01:15:40;94618.03;;;19.32;94.19
11077;BME280;5591;42.626;23.380;2023-09-30T01:18:08;94623.34;;;19.32;93.72
11077;BME280;5591;42.626;23.380;2023-09-30T01:20:35;94624.63;;;19.29;94.25
11077;BME280;5591;42.626;23.380;2023-09-30T01:23:03;94623.94;;;19.34;94.01
11077;BME280;5591;42.626;23.380;2023-09-30T01:25:30;94621.84;;;19.47;93.15
11077;BME280;5591;42.626;23.380;2023-09-30T01:27:58;94617.09;;;19.38;93.61
11077;BME280;5591;42.626;23.380;2023-09-30T01:30:31;94623.72;;;19.24;94.98
11077;BME280;5591;42.626;23.380;2023-09-30T01:32:58;94579.34;;;18.95;95.05
11077;BME280;5591;42.626;23.380;2023-09-30T01:35:25;94590.56;;;18.97;95.15
11077;BME280;5591;42.626;23.380;2023-09-30T01:37:52;94621.94;;;19.06;95.88
11077;BME280;5591;42.626;23.380;2023-09-30T01:40:20;94619.50;;;19.05;95.17
11077;BME280;5591;42.626;23.380;2023-09-30T01:42:47;94622.00;;;19.00;95.88
11077;BME280;5591;42.626;23.380;2023-09-30T01:45:14;94617.88;;;19.04;95.75
11077;BME280;5591;42.626;23.380;2023-09-30T01:47:41;94616.72;;;19.11;95.64
11077;BME280;5591;42.626;23.380;2023-09-30T01:50:09;94619.22;;;18.83;96.84
11077;BME280;5591;42.626;23.380;2023-09-30T01:52:35;94608.81;;;18.82;96.67
11077;BME280;5591;42.626;23.380;2023-09-30T01:55:03;94615.53;;;18.84;96.53
11077;BME280;5591;42.626;23.380;2023-09-30T01:57:31;94610.91;;;18.80;96.72
11077;BME280;5591;42.626;23.380;2023-09-30T01:59:58;94620.88;;;18.84;96.36
11077;BME280;5591;42.626;23.380;2023-09-30T02:02:24;94605.59;;;18.91;95.68
11077;BME280;5591;42.626;23.380;2023-09-30T02:04:52;94609.94;;;18.63;97.27
11077;BME280;5591;42.626;23.380;2023-09-30T02:07:19;94612.16;;;18.77;97.01
11077;BME280;5591;42.626;23.380;2023-09-30T02:09:46;94598.03;;;18.77;97.31
11077;BME280;5591;42.626;23.380;2023-09-30T02:12:14;94601.88;;;18.81;96.80
11077;BME280;5591;42.626;23.380;2023-09-30T02:14:42;94606.34;;;18.57;99.00
11077;BME280;5591;42.626;23.380;2023-09-30T02:17:11;94606.84;;;18.77;97.89
11077;BME280;5591;42.626;23.380;2023-09-30T02:19:38;94603.19;;;18.90;97.58
11077;BME280;5591;42.626;23.380;2023-09-30T02:22:06;94606.75;;;18.84;98.27
11077;BME280;5591;42.626;23.380;2023-09-30T02:24:32;94603.47;;;18.70;98.71
11077;BME280;5591;42.626;23.380;2023-09-30T02:26:59;94603.63;;;18.75;99.08
11077;BME280;5591;42.626;23.380;2023-09-30T02:29:26;94609.41;;;18.84;98.34
11077;BME280;5591;42.626;23.380;2023-09-30T02:31:55;94608.44;;;18.67;98.76
11077;BME280;5591;42.626;23.380;2023-09-30T02:34:22;94610.50;;;18.65;99.12
11077;BME280;5591;42.626;23.380;2023-09-30T02:36:49;94614.69;;;18.72;98.95
11077;BME280;5591;42.626;23.380;2023-09-30T02:39:17;94608.31;;;18.62;99.51
11077;BME280;5591;42.626;23.380;2023-09-30T02:41:44;94607.16;;;18.28;100.00
11077;BME280;5591;42.626;23.380;2023-09-30T02:44:10;94612.63;;;18.33;100.00
11077;BME280;5591;42.626;23.380;2023-09-30T02:46:37;94611.59;;;18.46;99.49
11077;BME280;5591;42.626;23.380;2023-09-30T02:49:06;94611.78;;;18.33;99.93
11077;BME280;5591;42.626;23.380;2023-09-30T02:51:33;94607.88;;;18.35;99.59
11077;BME280;5591;42.626;23.380;2023-09-30T02:54:00;94607.53;;;18.32;99.90
11077;BME280;5591;42.626;23.380;2023-09-30T02:56:30;94597.97;;;18.42;99.76
11077;BME280;5591;42.626;23.380;2023-09-30T02:58:58;94610.34;;;18.37;100.00
11077;BME280;5591;42.626;23.380;2023-09-30T03:01:25;94598.75;;;18.31;100.00
11077;BME280;5591;42.626;23.380;2023-09-30T03:03:53;94612.31;;;18.23;100.00
11077;BME280;5591;42.626;23.380;2023-09-30T03:06:22;94581.56;;;18.16;100.00
11077;BME280;5591;42.626;23.380;2023-09-30T03:08:48;94610.03;;;18.56;100.00
11077;BME280;5591;42.626;23.380;2023-09-30T03:11:16;94604.72;;;18.56;100.00
11077;BME280;5591;42.626;23.380;2023-09-30T03:13:45;94610.97;;;18.62;100.00
11077;BME280;5591;42.626;23.380;2023-09-30T03:16:12;94584.34;;;18.39;100.00
11077;BME280;5591;42.626;23.380;2023-09-30T03:18:38;94609.72;;;18.76;100.00
11077;BME280;5591;42.626;23.380;2023-09-30T03:21:13;94608.09;;;18.63;100.00
11077;BME280;5591;42.626;23.380;2023-09-30T03:23:42;94601.75;;;18.64;100.00
11077;BME280;5591;42.626;23.380;2023-09-30T03:26:09;94607.75;;;18.71;100.00
11077;BME280;5591;42.626;23.380;2023-09-30T03:28:36;94603.78;;;18.51;100.00
11077;BME280;5591;42.626;23.380;2023-09-30T03:31:04;94601.66;;;18.41;100.00
11077;BME280;5591;42.626;23.380;2023-09-30T03:33:31;94577.81;;;18.35;100.00
11077;BME280;5591;42.626;23.380;2023-09-30T03:35:59;94599.50;;;18.50;100.00
11077;BME280;5591;42.626;23.380;2023-09-30T03:38:26;94602.38;;;18.48;100.00
11077;BME280;5591;42.626;23.380;2023-09-30T03:40:54;94597.84;;;18.37;100.00
11077;BME280;5591;42.626;23.380;2023-09-30T03:43:23;94593.94;;;18.40;100.00
11077;BME280;5591;42.626;23.380;2023-09-30T03:45:50;94597.75;;;18.44;100.00
11077;BME280;5591;42.626;23.380;2023-09-30T03:48:16;94593.94;;;18.40;100.00
11077;BME280;5591;42.626;23.380;2023-09-30T03:50:44;94598.69;;;18.49;100.00
11077;BME280;5591;42.626;23.380;2023-09-30T03:53:10;94600.84;;;18.41;100.00
11077;BME280;5591;42.626;23.380;2023-09-30T03:55:37;94597.97;;;18.42;100.00
11077;BME280;5591;42.626;23.380;2023-09-30T03:58:05;94609.88;;;18.40;100.00
11077;BME280;5591;42.626;23.380;2023-09-30T04:00:32;94603.16;;;18.37;100.00
11077;BME280;5591;42.626;23.380;2023-09-30T04:03:01;94603.16;;;18.37;100.00
11077;BME280;5591;42.626;23.380;2023-09-30T04:05:28;94597.47;;;18.34;100.00
11077;BME280;5591;42.626;23.380;2023-09-30T04:07:55;94619.41;;;18.29;100.00
11077;BME280;5591;42.626;23.380;2023-09-30T04:10:22;94607.22;;;18.22;100.00
11077;BME280;5591;42.626;23.380;2023-09-30T04:12:49;94604.38;;;18.05;100.00
11077;BME280;5591;42.626;23.380;2023-09-30T04:15:17;94536.66;;;17.49;100.00
11077;BME280;5591;42.626;23.380;2023-09-30T04:17:44;94615.09;;;17.81;100.00
11077;BME280;5591;42.626;23.380;2023-09-30T04:20:11;94612.03;;;17.84;100.00
11077;BME280;5591;42.626;23.380;2023-09-30T04:22:48;94619.16;;;17.65;100.00
11077;BME280;5591;42.626;23.380;2023-09-30T04:25:16;94638.63;;;17.42;100.00
11077;BME280;5591;42.626;23.380;2023-09-30T04:27:44;94617.31;;;17.24;100.00
11077;BME280;5591;42.626;23.380;2023-09-30T04:30:13;94561.06;;;16.79;100.00
11077;BME280;5591;42.626;23.380;2023-09-30T04:32:42;94619.19;;;16.99;100.00
11077;BME280;5591;42.626;23.380;2023-09-30T04:35:09;94627.41;;;16.91;100.00
11077;BME280;5591;42.626;23.380;2023-09-30T04:37:36;94616.53;;;16.99;100.00
11077;BME280;5591;42.626;23.380;2023-09-30T04:40:04;94620.03;;;16.75;100.00
11077;BME280;5591;42.626;23.380;2023-09-30T04:42:40;94631.44;;;17.00;100.00
11077;BME280;5591;42.626;23.380;2023-09-30T04:45:09;94620.41;;;16.78;100.00
11077;BME280;5591;42.626;23.380;2023-09-30T04:47:36;94623.53;;;16.93;100.00
11077;BME280;5591;42.626;23.380;2023-09-30T04:50:07;94628.72;;;16.82;100.00
11077;BME280;5591;42.626;23.380;2023-09-30T04:52:34;94626.38;;;16.92;100.00
11077;BME280;5591;42.626;23.380;2023-09-30T04:55:01;94632.06;;;16.95;100.00
11077;BME280;5591;42.626;23.380;2023-09-30T04:57:28;94639.56;;;17.05;100.00
11077;BME280;5591;42.626;23.380;2023-09-30T04:59:55;94630.44;;;17.19;100.00
11077;BME280;5591;42.626;23.380;2023-09-30T05:02:22;94637.38;;;16.95;100.00
11077;BME280;5591;42.626;23.380;2023-09-30T05:04:49;94627.69;;;17.07;100.00
11077;BME280;5591;42.626;23.380;2023-09-30T05:07:19;94637.22;;;17.15;100.00
11077;BME280;5591;42.626;23.380;2023-09-30T05:09:47;94640.88;;;17.14;100.00
11077;BME280;5591;42.626;23.380;2023-09-30T05:12:13;94657.19;;;17.42;100.00
11077;BME280;5591;42.626;23.380;2023-09-30T05:14:41;94645.09;;;17.46;100.00
11077;BME280;5591;42.626;23.380;2023-09-30T05:17:08;94644.16;;;17.58;100.00
11077;BME280;5591;42.626;23.380;2023-09-30T05:19:35;94658.97;;;17.65;100.00
11077;BME280;5591;42.626;23.380;2023-09-30T05:22:03;94648.53;;;17.70;100.00
11077;BME280;5591;42.626;23.380;2023-09-30T05:24:32;94641.72;;;17.92;100.00
11077;BME280;5591;42.626;23.380;2023-09-30T05:27:00;94641.00;;;18.03;100.00
11077;BME280;5591;42.626;23.380;2023-09-30T05:29:27;94638.53;;;18.20;100.00
11077;BME280;5591;42.626;23.380;2023-09-30T05:31:53;94640.63;;;18.47;100.00
11077;BME280;5591;42.626;23.380;2023-09-30T05:34:21;94635.53;;;18.46;100.00
11077;BME280;5591;42.626;23.380;2023-09-30T05:36:48;94649.97;;;18.79;100.00
11077;BME280;5591;42.626;23.380;2023-09-30T05:39:17;94641.53;;;18.82;100.00
11077;BME280;5591;42.626;23.380;2023-09-30T05:41:46;94641.91;;;18.86;100.00
11077;BME280;5591;42.626;23.380;2023-09-30T05:44:13;94654.03;;;18.93;100.00
11077;BME280;5591;42.626;23.380;2023-09-30T05:46:40;94660.88;;;18.89;100.00
11077;BME280;5591;42.626;23.380;2023-09-30T05:49:08;94652.22;;;18.94;100.00
11077;BME280;5591;42.626;23.380;2023-09-30T05:51:45;94620.16;;;18.89;100.00
11077;BME280;5591;42.626;23.380;2023-09-30T05:54:12;94653.06;;;19.17;100.00
11077;BME280;5591;42.626;23.380;2023-09-30T05:56:39;94651.13;;;19.24;100.00
11077;BME280;5591;42.626;23.380;2023-09-30T05:59:09;94667.69;;;19.38;100.00
11077;BME280;5591;42.626;23.380;2023-09-30T06:01:36;94660.03;;;19.18;100.00
11077;BME280;5591;42.626;23.380;2023-09-30T06:04:04;94658.41;;;19.52;100.00
11077;BME280;5591;42.626;23.380;2023-09-30T06:06:32;94672.19;;;19.26;100.00
11077;BME280;5591;42.626;23.380;2023-09-30T06:08:59;94663.69;;;19.06;100.00
11077;BME280;5591;42.626;23.380;2023-09-30T06:11:26;94629.28;;;18.81;100.00
11077;BME280;5591;42.626;23.380;2023-09-30T06:13:54;94672.09;;;19.67;100.00
11077;BME280;5591;42.626;23.380;2023-09-30T06:16:22;94668.25;;;19.86;100.00
11077;BME280;5591;42.626;23.380;2023-09-30T06:18:52;94615.19;;;19.84;99.06
11077;BME280;5591;42.626;23.380;2023-09-30T06:21:19;94674.44;;;20.37;96.12
11077;BME280;5591;42.626;23.380;2023-09-30T06:23:46;94673.69;;;20.02;93.92
11077;BME280;5591;42.626;23.380;2023-09-30T06:26:14;94681.19;;;20.17;92.00
11077;BME280;5591;42.626;23.380;2023-09-30T06:28:42;94675.63;;;20.18;94.55
11077;BME280;5591;42.626;23.380;2023-09-30T06:31:09;94683.28;;;20.26;92.28
11077;BME280;5591;42.626;23.380;2023-09-30T06:33:38;94685.50;;;20.06;92.47
11077;BME280;5591;42.626;23.380;2023-09-30T06:36:08;94687.72;;;19.86;92.61
11077;BME280;5591;42.626;23.380;2023-09-30T06:38:36;94695.13;;;19.73;93.72
11077;BME280;5591;42.626;23.380;2023-09-30T06:41:03;94655.63;;;19.70;88.63
11077;BME280;5591;42.626;23.380;2023-09-30T06:43:30;94691.06;;;20.05;86.21
11077;BME280;5591;42.626;23.380;2023-09-30T06:45:57;94686.78;;;20.04;85.24
11077;BME280;5591;42.626;23.380;2023-09-30T06:48:24;94683.06;;;20.55;82.56
11077;BME280;5591;42.626;23.380;2023-09-30T06:50:52;94687.94;;;20.08;84.28
11077;BME280;5591;42.626;23.380;2023-09-30T06:53:19;94679.25;;;19.89;83.96
11077;BME280;5591;42.626;23.380;2023-09-30T06:55:49;94687.56;;;20.27;83.22
11077;BME280;5591;42.626;23.380;2023-09-30T06:58:17;94694.06;;;20.59;82.60
11077;BME280;5591;42.626;23.380;2023-09-30T07:00:46;94686.84;;;20.99;80.15
11077;BME280;5591;42.626;23.380;2023-09-30T07:03:14;94691.91;;;21.00;81.36
11077;BME280;5591;42.626;23.380;2023-09-30T07:05:41;94692.25;;;20.48;84.51
11077;BME280;5591;42.626;23.380;2023-09-30T07:08:09;94701.84;;;20.88;84.26
11077;BME280;5591;42.626;23.380;2023-09-30T07:10:36;94664.28;;;20.78;83.47
11077;BME280;5591;42.626;23.380;2023-09-30T07:13:03;94694.75;;;20.94;84.02
11077;BME280;5591;42.626;23.380;2023-09-30T07:15:32;94616.19;;;20.45;85.04
11077;BME280;5591;42.626;23.380;2023-09-30T07:17:59;94697.88;;;21.35;82.59
11077;BME280;5591;42.626;23.380;2023-09-30T07:20:26;94702.56;;;21.28;81.72
11077;BME280;5591;42.626;23.380;2023-09-30T07:22:53;94609.09;;;20.51;78.54
11077;BME280;5591;42.626;23.380;2023-09-30T07:25:21;94700.22;;;21.15;77.35
11077;BME280;5591;42.626;23.380;2023-09-30T07:27:48;94697.63;;;21.53;74.84
11077;BME280;5591;42.626;23.380;2023-09-30T07:30:16;94701.34;;;21.52;74.64
11077;BME280;5591;42.626;23.380;2023-09-30T07:32:43;94705.94;;;21.68;75.50
11077;BME280;5591;42.626;23.380;2023-09-30T07:35:10;94701.38;;;22.23;69.97
11077;BME280;5591;42.626;23.380;2023-09-30T07:37:37;94702.97;;;22.41;69.89
11077;BME280;5591;42.626;23.380;2023-09-30T07:40:06;94698.13;;;22.86;69.05
11077;BME280;5591;42.626;23.380;2023-09-30T07:42:34;94700.25;;;23.31;66.59
11077;BME280;5591;42.626;23.380;2023-09-30T07:45:01;94706.75;;;23.77;64.31
11077;BME280;5591;42.626;23.380;2023-09-30T07:47:29;94691.31;;;23.89;62.58
11077;BME280;5591;42.626;23.380;2023-09-30T07:49:59;94704.34;;;23.44;61.82
11077;BME280;5591;42.626;23.380;2023-09-30T07:52:26;94700.78;;;23.96;60.03
11077;BME280;5591;42.626;23.380;2023-09-30T07:54:53;94700.75;;;24.38;59.62
11077;BME280;5591;42.626;23.380;2023-09-30T07:57:20;94694.06;;;24.40;56.82
11077;BME280;5591;42.626;23.380;2023-09-30T07:59:48;94669.44;;;24.02;56.69
11077;BME280;5591;42.626;23.380;2023-09-30T08:02:15;94707.81;;;23.71;57.79
11077;BME280;5591;42.626;23.380;2023-09-30T08:04:43;94717.94;;;23.64;54.76
11077;BME280;5591;42.626;23.380;2023-09-30T08:07:10;94699.25;;;23.74;55.09
11077;BME280;5591;42.626;23.380;2023-09-30T08:09:36;94711.84;;;24.10;53.06
11077;BME280;5591;42.626;23.380;2023-09-30T08:12:04;94668.31;;;23.93;53.52
11077;BME280;5591;42.626;23.380;2023-09-30T08:14:32;94705.47;;;24.21;52.53
11077;BME280;5591;42.626;23.380;2023-09-30T08:17:00;94691.03;;;23.54;54.01
11077;BME280;5591;42.626;23.380;2023-09-30T08:19:28;94711.50;;;23.96;53.56
11077;BME280;5591;42.626;23.380;2023-09-30T08:21:55;94711.53;;;24.01;52.53
11077;BME280;5591;42.626;23.380;2023-09-30T08:24:21;94714.31;;;23.80;52.94
11077;BME280;5591;42.626;23.380;2023-09-30T08:26:48;94706.09;;;23.91;53.67
11077;BME280;5591;42.626;23.380;2023-09-30T08:29:17;94670.84;;;24.71;51.53
11077;BME280;5591;42.626;23.380;2023-09-30T08:31:43;94702.50;;;24.64;51.45
11077;BME280;5591;42.626;23.380;2023-09-30T08:34:11;94697.53;;;25.07;49.95
11077;BME280;5591;42.626;23.380;2023-09-30T08:36:40;94707.22;;;25.18;49.44
11077;BME280;5591;42.626;23.380;2023-09-30T08:39:07;94704.22;;;24.90;49.64
11077;BME280;5591;42.626;23.380;2023-09-30T08:41:35;94714.34;;;24.21;51.15
11077;BME280;5591;42.626;23.380;2023-09-30T08:44:03;94672.41;;;24.62;50.26
11077;BME280;5591;42.626;23.380;2023-09-30T08:46:32;94700.63;;;24.69;49.81
11077;BME280;5591;42.626;23.380;2023-09-30T08:49:01;94673.84;;;24.28;48.88
11077;BME280;5591;42.626;23.380;2023-09-30T08:51:31;94695.03;;;24.86;47.80
11077;BME280;5591;42.626;23.380;2023-09-30T08:53:59;94693.31;;;25.51;46.13
11077;BME280;5591;42.626;23.380;2023-09-30T08:56:28;94659.44;;;25.40;45.11
11077;BME280;5591;42.626;23.380;2023-09-30T08:58:57;94687.94;;;26.11;44.45
11077;BME280;5591;42.626;23.380;2023-09-30T09:01:24;94664.25;;;25.83;44.36
11077;BME280;5591;42.626;23.380;2023-09-30T09:03:52;94679.03;;;26.20;43.84
11077;BME280;5591;42.626;23.380;2023-09-30T09:06:20;94689.19;;;26.58;43.44
11077;BME280;5591;42.626;23.380;2023-09-30T09:08:48;94686.00;;;26.36;42.38
11077;BME280;5591;42.626;23.380;2023-09-30T09:11:16;94586.19;;;26.13;41.79
11077;BME280;5591;42.626;23.380;2023-09-30T09:13:46;94661.81;;;26.90;41.39
11077;BME280;5591;42.626;23.380;2023-09-30T09:16:15;94681.13;;;27.12;41.23
11077;BME280;5591;42.626;23.380;2023-09-30T09:18:43;94675.75;;;26.33;40.89
11077;BME280;5591;42.626;23.380;2023-09-30T09:21:11;94681.84;;;26.74;40.09
11077;BME280;5591;42.626;23.380;2023-09-30T09:23:42;94680.38;;;26.96;39.69
11077;BME280;5591;42.626;23.380;2023-09-30T09:26:11;94674.25;;;27.34;38.56
11077;BME280;5591;42.626;23.380;2023-09-30T09:28:39;94684.25;;;27.29;38.40
11077;BME280;5591;42.626;23.380;2023-09-30T09:31:24;94670.06;;;27.13;38.34
11077;BME280;5591;42.626;23.380;2023-09-30T09:33:51;94674.72;;;26.93;38.76
11077;BME280;5591;42.626;23.380;2023-09-30T09:36:19;94667.25;;;27.33;39.20
11077;BME280;5591;42.626;23.380;2023-09-30T09:38:48;94660.47;;;27.36;39.53
11077;BME280;5591;42.626;23.380;2023-09-30T09:41:17;94635.38;;;26.97;38.83
11077;BME280;5591;42.626;23.380;2023-09-30T09:43:44;94584.31;;;26.72;39.23
11077;BME280;5591;42.626;23.380;2023-09-30T09:46:11;94669.50;;;27.21;39.07
11077;BME280;5591;42.626;23.380;2023-09-30T09:48:39;94665.69;;;27.22;39.72
11077;BME280;5591;42.626;23.380;2023-09-30T09:51:09;94654.06;;;27.60;37.92
11077;BME280;5591;42.626;23.380;2023-09-30T09:53:39;94656.00;;;27.55;38.51
11077;BME280;5591;42.626;23.380;2023-09-30T09:56:08;94637.84;;;27.65;37.55
11077;BME280;5591;42.626;23.380;2023-09-30T09:58:39;94666.56;;;27.90;36.49
11077;BME280;5591;42.626;23.380;2023-09-30T10:01:09;94625.03;;;27.14;38.50
11077;BME280;5591;42.626;23.380;2023-09-30T10:03:37;94652.94;;;27.33;37.97
11077;BME280;5591;42.626;23.380;2023-09-30T10:06:05;94652.97;;;27.61;37.78
11077;BME280;5591;42.626;23.380;2023-09-30T10:08:38;94636.84;;;27.56;37.67
11077;BME280;5591;42.626;23.380;2023-09-30T10:11:06;94645.81;;;27.13;38.32
11077;BME280;5591;42.626;23.380;2023-09-30T10:13:55;94632.44;;;27.99;37.40
11077;BME280;5591;42.626;23.380;2023-09-30T10:16:47;94644.91;;;27.95;36.99
11077;BME280;5591;42.626;23.380;2023-09-30T10:19:16;94642.38;;;26.98;37.65
11077;BME280;5591;42.626;23.380;2023-09-30T10:22:21;94640.88;;;25.69;39.67
11077;BME280;5591;42.626;23.380;2023-09-30T10:24:49;94638.22;;;26.67;39.81
11077;BME280;5591;42.626;23.380;2023-09-30T10:27:33;94627.00;;;27.42;37.80
11077;BME280;5591;42.626;23.380;2023-09-30T10:30:08;94635.44;;;27.64;37.75
11077;BME280;5591;42.626;23.380;2023-09-30T10:33:08;94621.81;;;28.07;36.27
11077;BME280;5591;42.626;23.380;2023-09-30T10:35:43;94607.25;;;28.08;36.19
11077;BME280;5591;42.626;23.380;2023-09-30T10:38:36;94617.69;;;28.15;36.04
11077;BME280;5591;42.626;23.380;2023-09-30T10:41:06;94616.72;;;28.06;36.05
11077;BME280;5591;42.626;23.380;2023-09-30T10:43:34;94580.22;;;27.85;35.99
11077;BME280;5591;42.626;23.380;2023-09-30T10:46:04;94593.41;;;28.80;34.38
11077;BME280;5591;42.626;23.380;2023-09-30T10:48:36;94597.03;;;28.52;34.48
11077;BME280;5591;42.626;23.380;2023-09-30T10:51:14;94601.25;;;28.58;34.75
11077;BME280;5591;42.626;23.380;2023-09-30T10:53:45;94562.06;;;28.37;33.41
11077;BME280;5591;42.626;23.380;2023-09-30T10:56:12;94604.28;;;28.75;33.63
11077;BME280;5591;42.626;23.380;2023-09-30T10:58:43;94601.25;;;29.18;32.17
11077;BME280;5591;42.626;23.380;2023-09-30T11:01:13;94598.72;;;28.67;33.69
11077;BME280;5591;42.626;23.380;2023-09-30T11:03:40;94619.88;;;29.01;32.49
11077;BME280;5591;42.626;23.380;2023-09-30T11:06:07;94599.44;;;28.54;33.12
11077;BME280;5591;42.626;23.380;2023-09-30T11:08:35;94590.91;;;28.65;33.02
11077;BME280;5591;42.626;23.380;2023-09-30T11:11:03;94577.63;;;28.87;32.68
11077;BME280;5591;42.626;23.380;2023-09-30T11:13:33;94574.88;;;28.92;31.83
11077;BME280;5591;42.626;23.380;2023-09-30T11:16:02;94594.34;;;29.44;31.89
11077;BME280;5591;42.626;23.380;2023-09-30T11:18:31;94539.84;;;29.51;31.43
11077;BME280;5591;42.626;23.380;2023-09-30T11:21:06;94582.88;;;29.15;31.34
11077;BME280;5591;42.626;23.380;2023-09-30T11:23:33;94576.41;;;28.56;32.32
11077;BME280;5591;42.626;23.380;2023-09-30T11:26:01;94581.19;;;30.42;30.47
11077;BME280;5591;42.626;23.380;2023-09-30T11:28:36;94572.97;;;30.07;30.43
11077;BME280;5591;42.626;23.380;2023-09-30T11:31:03;94576.84;;;31.74;29.00
11077;BME280;5591;42.626;23.380;2023-09-30T11:33:33;94582.81;;;32.15;28.46
11077;BME280;5591;42.626;23.380;2023-09-30T11:36:14;94579.97;;;31.90;28.55
11077;BME280;5591;42.626;23.380;2023-09-30T11:38:44;94571.41;;;31.52;28.99
11077;BME280;5591;42.626;23.380;2023-09-30T11:41:12;94554.22;;;31.00;29.30
11077;BME280;5591;42.626;23.380;2023-09-30T11:43:57;94538.53;;;30.61;30.05
11077;BME280;5591;42.626;23.380;2023-09-30T11:46:24;94564.53;;;31.99;28.83
11077;BME280;5591;42.626;23.380;2023-09-30T11:48:58;94571.66;;;32.17;28.06
11077;BME280;5591;42.626;23.380;2023-09-30T11:51:26;94561.25;;;31.88;28.78
11077;BME280;5591;42.626;23.380;2023-09-30T11:53:53;94562.78;;;32.89;27.73
11077;BME280;5591;42.626;23.380;2023-09-30T11:56:22;94563.44;;;32.86;28.06
11077;BME280;5591;42.626;23.380;2023-09-30T11:58:53;94558.50;;;32.41;28.01
11077;BME280;5591;42.626;23.380;2023-09-30T12:01:20;94552.75;;;33.24;27.70
11077;BME280;5591;42.626;23.380;2023-09-30T12:03:47;94544.84;;;33.82;26.68
11077;BME280;5591;42.626;23.380;2023-09-30T12:06:15;94543.69;;;34.74;26.37
11077;BME280;5591;42.626;23.380;2023-09-30T12:08:42;94544.56;;;34.29;26.13
11077;BME280;5591;42.626;23.380;2023-09-30T12:11:10;94537.34;;;35.32;25.64
11077;BME280;5591;42.626;23.380;2023-09-30T12:13:38;94550.22;;;35.84;25.41
11077;BME280;5591;42.626;23.380;2023-09-30T12:16:05;94541.72;;;35.45;25.47
11077;BME280;5591;42.626;23.380;2023-09-30T12:18:32;94533.69;;;36.13;24.81
11077;BME280;5591;42.626;23.380;2023-09-30T12:20:59;94541.25;;;36.76;24.35
11077;BME280;5591;42.626;23.380;2023-09-30T12:23:27;94535.53;;;36.81;24.11
11077;BME280;5591;42.626;23.380;2023-09-30T12:25:54;94529.03;;;36.26;24.71
11077;BME280;5591;42.626;23.380;2023-09-30T12:28:20;94515.22;;;37.06;24.06
11077;BME280;5591;42.626;23.380;2023-09-30T12:30:47;94519.22;;;37.36;23.62
11077;BME280;5591;42.626;23.380;2023-09-30T12:33:14;94518.25;;;37.17;23.81
11077;BME280;5591;42.626;23.380;2023-09-30T12:35:41;94537.31;;;35.73;24.93
11077;BME280;5591;42.626;23.380;2023-09-30T12:38:08;94524.97;;;33.90;26.60
11077;BME280;5591;42.626;23.380;2023-09-30T12:40:36;94511.72;;;35.24;26.90
11077;BME280;5591;42.626;23.380;2023-09-30T12:43:03;94521.38;;;35.54;25.05
11077;BME280;5591;42.626;23.380;2023-09-30T12:45:32;94518.97;;;35.41;25.03
11077;BME280;5591;42.626;23.380;2023-09-30T12:47:59;94519.06;;;34.54;25.54
11077;BME280;5591;42.626;23.380;2023-09-30T12:50:25;94520.69;;;33.12;26.60
11077;BME280;5591;42.626;23.380;2023-09-30T12:52:52;94512.34;;;34.23;25.96
11077;BME280;5591;42.626;23.380;2023-09-30T12:55:19;94502.19;;;35.10;24.76
11077;BME280;5591;42.626;23.380;2023-09-30T12:57:47;94503.72;;;35.19;24.95
11077;BME280;5591;42.626;23.380;2023-09-30T13:00:15;94502.41;;;34.76;25.91
11077;BME280;5591;42.626;23.380;2023-09-30T13:02:42;94500.81;;;35.16;24.90
11077;BME280;5591;42.626;23.380;2023-09-30T13:05:09;94500.94;;;36.05;24.85